sensor_id;sensor_type;location;lat;lon;timestamp;pressure;altitude;pressure_sealevel;temperature;humidity
59417;BME280;45222;52.458;20.914;2022-09-20T00:01:38;100209.11;;;7.61;88.10
59417;BME280;45222;52.458;20.914;2022-09-20T00:04:44;100210.98;;;7.59;88.32
59417;BME280;45222;52.458;20.914;2022-09-20T00:07:51;100211.38;;;7.58;88.79
59417;BME280;45222;52.458;20.914;2022-09-20T00:10:59;100212.21;;;7.59;89.00
59417;BME280;45222;52.458;20.914;2022-09-20T00:14:05;100211.70;;;7.58;89.36
59417;BME280;45222;52.458;20.914;2022-09-20T00:17:12;100214.00;;;7.54;89.70
59417;BME280;45222;52.458;20.914;2022-09-20T00:20:18;100219.37;;;7.52;89.53
59417;BME280;45222;52.458;20.914;2022-09-20T00:23:23;100218.11;;;7.53;89.56
59417;BME280;45222;52.458;20.914;2022-09-20T00:26:29;100217.33;;;7.55;89.79
59417;BME280;45222;52.458;20.914;2022-09-20T00:29:34;100220.37;;;7.59;89.93
59417;BME280;45222;52.458;20.914;2022-09-20T00:32:40;100225.89;;;7.62;89.70
59417;BME280;45222;52.458;20.914;2022-09-20T00:35:45;100224.27;;;7.63;89.50
59417;BME280;45222;52.458;20.914;2022-09-20T00:38:57;100223.40;;;7.62;89.10
59417;BME280;45222;52.458;20.914;2022-09-20T00:42:04;100223.14;;;7.60;88.65
59417;BME280;45222;52.458;20.914;2022-09-20T00:45:15;100223.01;;;7.54;88.45
59417;BME280;45222;52.458;20.914;2022-09-20T00:48:28;100225.35;;;7.48;88.27
59417;BME280;45222;52.458;20.914;2022-09-20T00:51:36;100230.40;;;7.46;88.27
59417;BME280;45222;52.458;20.914;2022-09-20T00:54:42;100228.17;;;7.44;88.38
59417;BME280;45222;52.458;20.914;2022-09-20T00:57:48;100225.05;;;7.42;88.25
59417;BME280;45222;52.458;20.914;2022-09-20T01:00:55;100232.75;;;7.35;87.81
59417;BME280;45222;52.458;20.914;2022-09-20T01:04:02;100227.11;;;7.24;87.94
59417;BME280;45222;52.458;20.914;2022-09-20T01:07:08;100230.11;;;7.20;87.99
59417;BME280;45222;52.458;20.914;2022-09-20T01:10:15;100226.54;;;7.16;88.35
59417;BME280;45222;52.458;20.914;2022-09-20T01:13:21;100228.34;;;7.15;88.40
59417;BME280;45222;52.458;20.914;2022-09-20T01:16:27;100222.83;;;7.16;88.58
59417;BME280;45222;52.458;20.914;2022-09-20T01:19:38;100224.58;;;7.17;88.38
59417;BME280;45222;52.458;20.914;2022-09-20T01:23:06;100231.21;;;7.14;87.99
59417;BME280;45222;52.458;20.914;2022-09-20T01:26:38;100231.32;;;7.11;88.04
59417;BME280;45222;52.458;20.914;2022-09-20T01:30:03;100233.26;;;7.11;88.19
59417;BME280;45222;52.458;20.914;2022-09-20T01:33:11;100233.70;;;7.09;88.04
59417;BME280;45222;52.458;20.914;2022-09-20T01:36:25;100234.17;;;7.01;88.00
59417;BME280;45222;52.458;20.914;2022-09-20T01:39:41;100234.65;;;6.97;88.56
59417;BME280;45222;52.458;20.914;2022-09-20T01:42:55;100236.64;;;6.96;88.77
59417;BME280;45222;52.458;20.914;2022-09-20T01:46:13;100233.42;;;6.97;89.01
59417;BME280;45222;52.458;20.914;2022-09-20T01:49:29;100233.78;;;7.02;89.40
59417;BME280;45222;52.458;20.914;2022-09-20T01:52:54;100235.23;;;7.11;89.68
59417;BME280;45222;52.458;20.914;2022-09-20T01:56:26;100234.54;;;7.20;90.01
59417;BME280;45222;52.458;20.914;2022-09-20T01:59:52;100234.52;;;7.26;90.11
59417;BME280;45222;52.458;20.914;2022-09-20T02:03:25;100231.02;;;7.30;90.18
59417;BME280;45222;52.458;20.914;2022-09-20T02:06:50;100231.81;;;7.36;90.35
59417;BME280;45222;52.458;20.914;2022-09-20T02:10:23;100237.50;;;7.45;90.41
59417;BME280;45222;52.458;20.914;2022-09-20T02:13:47;100241.32;;;7.52;90.45
59417;BME280;45222;52.458;20.914;2022-09-20T02:16:55;100249.58;;;7.54;90.60
59417;BME280;45222;52.458;20.914;2022-09-20T02:20:09;100244.92;;;7.55;90.70
59417;BME280;45222;52.458;20.914;2022-09-20T02:23:35;100249.79;;;7.57;90.69
59417;BME280;45222;52.458;20.914;2022-09-20T02:26:54;100253.02;;;7.61;90.93
59417;BME280;45222;52.458;20.914;2022-09-20T02:30:12;100252.14;;;7.65;91.08
59417;BME280;45222;52.458;20.914;2022-09-20T02:33:33;100257.45;;;7.70;91.19
59417;BME280;45222;52.458;20.914;2022-09-20T02:36:49;100261.55;;;7.74;91.29
59417;BME280;45222;52.458;20.914;2022-09-20T02:40:11;100260.55;;;7.77;91.27
59417;BME280;45222;52.458;20.914;2022-09-20T02:43:29;100260.96;;;7.80;91.20
59417;BME280;45222;52.458;20.914;2022-09-20T02:46:43;100267.72;;;7.84;91.31
59417;BME280;45222;52.458;20.914;2022-09-20T02:49:59;100271.41;;;7.89;91.41
59417;BME280;45222;52.458;20.914;2022-09-20T02:53:21;100275.05;;;7.96;91.48
59417;BME280;45222;52.458;20.914;2022-09-20T02:56:37;100269.97;;;7.99;91.38
59417;BME280;45222;52.458;20.914;2022-09-20T02:59:51;100266.56;;;8.00;91.15
59417;BME280;45222;52.458;20.914;2022-09-20T03:03:12;100268.38;;;7.99;91.14
59417;BME280;45222;52.458;20.914;2022-09-20T03:06:26;100268.36;;;7.99;91.00
59417;BME280;45222;52.458;20.914;2022-09-20T03:09:42;100270.56;;;8.01;91.06
59417;BME280;45222;52.458;20.914;2022-09-20T03:12:59;100271.48;;;8.05;91.08
59417;BME280;45222;52.458;20.914;2022-09-20T03:16:15;100269.66;;;8.07;91.15
59417;BME280;45222;52.458;20.914;2022-09-20T03:19:34;100271.31;;;8.05;91.07
59417;BME280;45222;52.458;20.914;2022-09-20T03:22:56;100272.48;;;8.02;91.01
59417;BME280;45222;52.458;20.914;2022-09-20T03:26:15;100270.77;;;8.01;90.82
59417;BME280;45222;52.458;20.914;2022-09-20T03:29:33;100269.40;;;8.00;90.85
59417;BME280;45222;52.458;20.914;2022-09-20T03:32:50;100275.34;;;8.01;91.01
59417;BME280;45222;52.458;20.914;2022-09-20T03:36:03;100279.86;;;8.04;91.00
59417;BME280;45222;52.458;20.914;2022-09-20T03:39:34;100286.15;;;8.02;91.14
59417;BME280;45222;52.458;20.914;2022-09-20T03:42:44;100289.79;;;8.04;91.18
59417;BME280;45222;52.458;20.914;2022-09-20T03:45:59;100283.94;;;8.04;91.27
59417;BME280;45222;52.458;20.914;2022-09-20T03:53:03;100285.68;;;8.10;91.19
59417;BME280;45222;52.458;20.914;2022-09-20T03:56:32;100289.89;;;8.14;91.36
59417;BME280;45222;52.458;20.914;2022-09-20T04:00:02;100295.82;;;8.21;91.29
59417;BME280;45222;52.458;20.914;2022-09-20T04:03:39;100293.93;;;8.24;91.22
59417;BME280;45222;52.458;20.914;2022-09-20T04:07:03;100292.16;;;8.25;91.29
59417;BME280;45222;52.458;20.914;2022-09-20T04:10:26;100295.13;;;8.26;91.06
59417;BME280;45222;52.458;20.914;2022-09-20T04:13:38;100297.01;;;8.27;91.03
59417;BME280;45222;52.458;20.914;2022-09-20T04:16:48;100303.08;;;8.30;91.19
59417;BME280;45222;52.458;20.914;2022-09-20T04:20:01;100303.98;;;8.35;91.27
59417;BME280;45222;52.458;20.914;2022-09-20T04:23:20;100304.89;;;8.39;91.23
59417;BME280;45222;52.458;20.914;2022-09-20T04:26:31;100317.36;;;8.41;91.30
59417;BME280;45222;52.458;20.914;2022-09-20T04:29:41;100320.80;;;8.44;91.20
59417;BME280;45222;52.458;20.914;2022-09-20T04:32:53;100317.98;;;8.48;91.07
59417;BME280;45222;52.458;20.914;2022-09-20T04:36:13;100324.59;;;8.52;91.18
59417;BME280;45222;52.458;20.914;2022-09-20T04:39:45;100329.09;;;8.54;91.13
59417;BME280;45222;52.458;20.914;2022-09-20T04:43:12;100332.44;;;8.54;91.19
59417;BME280;45222;52.458;20.914;2022-09-20T04:46:40;100336.79;;;8.53;90.92
59417;BME280;45222;52.458;20.914;2022-09-20T04:50:20;100340.97;;;8.54;90.97
59417;BME280;45222;52.458;20.914;2022-09-20T04:53:45;100340.91;;;8.56;91.08
59417;BME280;45222;52.458;20.914;2022-09-20T04:57:02;100344.70;;;8.58;90.96
59417;BME280;45222;52.458;20.914;2022-09-20T05:00:17;100345.03;;;8.59;90.99
59417;BME280;45222;52.458;20.914;2022-09-20T05:03:36;100342.92;;;8.58;90.89
59417;BME280;45222;52.458;20.914;2022-09-20T05:07:06;100343.98;;;8.58;90.96
59417;BME280;45222;52.458;20.914;2022-09-20T05:10:36;100349.75;;;8.61;90.96
59417;BME280;45222;52.458;20.914;2022-09-20T05:14:02;100361.46;;;8.65;91.26
59417;BME280;45222;52.458;20.914;2022-09-20T05:17:27;100369.58;;;8.70;91.08
59417;BME280;45222;52.458;20.914;2022-09-20T05:20:46;100371.06;;;8.73;90.86
59417;BME280;45222;52.458;20.914;2022-09-20T05:24:00;100381.07;;;8.76;90.79
59417;BME280;45222;52.458;20.914;2022-09-20T05:27:19;100382.84;;;8.80;90.85
59417;BME280;45222;52.458;20.914;2022-09-20T05:30:35;100384.45;;;8.83;90.87
59417;BME280;45222;52.458;20.914;2022-09-20T05:33:51;100391.27;;;8.86;90.78
59417;BME280;45222;52.458;20.914;2022-09-20T05:37:07;100392.05;;;8.89;90.77
59417;BME280;45222;52.458;20.914;2022-09-20T05:40:21;100396.53;;;8.92;90.49
59417;BME280;45222;52.458;20.914;2022-09-20T05:43:32;100395.98;;;8.96;90.73
59417;BME280;45222;52.458;20.914;2022-09-20T05:46:47;100395.13;;;9.00;90.67
59417;BME280;45222;52.458;20.914;2022-09-20T05:50:04;100397.50;;;9.03;90.57
59417;BME280;45222;52.458;20.914;2022-09-20T05:53:40;100399.60;;;9.04;90.51
59417;BME280;45222;52.458;20.914;2022-09-20T05:56:58;100402.24;;;9.08;90.37
59417;BME280;45222;52.458;20.914;2022-09-20T06:00:11;100405.45;;;9.12;90.54
59417;BME280;45222;52.458;20.914;2022-09-20T06:03:23;100411.16;;;9.16;90.43
59417;BME280;45222;52.458;20.914;2022-09-20T06:06:41;100410.25;;;9.20;90.27
59417;BME280;45222;52.458;20.914;2022-09-20T06:10:08;100414.38;;;9.24;90.22
59417;BME280;45222;52.458;20.914;2022-09-20T06:13:40;100417.28;;;9.30;90.15
59417;BME280;45222;52.458;20.914;2022-09-20T06:16:54;100416.95;;;9.38;90.21
59417;BME280;45222;52.458;20.914;2022-09-20T06:20:15;100420.44;;;9.44;90.08
59417;BME280;45222;52.458;20.914;2022-09-20T06:23:22;100421.20;;;9.47;90.17
59417;BME280;45222;52.458;20.914;2022-09-20T06:26:32;100429.42;;;9.50;89.85
59417;BME280;45222;52.458;20.914;2022-09-20T06:29:43;100429.20;;;9.50;89.51
59417;BME280;45222;52.458;20.914;2022-09-20T06:32:59;100435.36;;;9.52;89.51
59417;BME280;45222;52.458;20.914;2022-09-20T06:36:09;100435.69;;;9.57;89.82
59417;BME280;45222;52.458;20.914;2022-09-20T06:39:39;100441.48;;;9.62;89.60
59417;BME280;45222;52.458;20.914;2022-09-20T06:43:05;100448.50;;;9.69;89.78
59417;BME280;45222;52.458;20.914;2022-09-20T06:46:10;100448.82;;;9.74;89.42
59417;BME280;45222;52.458;20.914;2022-09-20T06:49:17;100449.86;;;9.78;89.40
59417;BME280;45222;52.458;20.914;2022-09-20T06:52:23;100453.05;;;9.82;89.42
59417;BME280;45222;52.458;20.914;2022-09-20T06:55:31;100452.69;;;9.82;89.08
59417;BME280;45222;52.458;20.914;2022-09-20T06:58:40;100462.14;;;9.82;88.94
59417;BME280;45222;52.458;20.914;2022-09-20T07:01:45;100461.62;;;9.78;88.93
59417;BME280;45222;52.458;20.914;2022-09-20T07:04:51;100460.70;;;9.74;89.05
59417;BME280;45222;52.458;20.914;2022-09-20T07:08:02;100463.20;;;9.78;89.35
59417;BME280;45222;52.458;20.914;2022-09-20T07:11:11;100464.75;;;9.83;89.18
59417;BME280;45222;52.458;20.914;2022-09-20T07:14:18;100465.67;;;9.90;89.16
59417;BME280;45222;52.458;20.914;2022-09-20T07:17:23;100466.77;;;10.01;89.37
59417;BME280;45222;52.458;20.914;2022-09-20T07:20:29;100469.39;;;10.11;89.02
59417;BME280;45222;52.458;20.914;2022-09-20T07:23:35;100473.77;;;10.16;88.80
59417;BME280;45222;52.458;20.914;2022-09-20T07:26:42;100475.55;;;10.20;88.38
59417;BME280;45222;52.458;20.914;2022-09-20T07:29:58;100483.63;;;10.23;88.43
59417;BME280;45222;52.458;20.914;2022-09-20T07:33:05;100485.48;;;10.28;88.53
59417;BME280;45222;52.458;20.914;2022-09-20T07:36:13;100490.08;;;10.33;88.26
59417;BME280;45222;52.458;20.914;2022-09-20T07:39:19;100497.80;;;10.39;88.32
59417;BME280;45222;52.458;20.914;2022-09-20T07:42:24;100499.61;;;10.42;87.98
59417;BME280;45222;52.458;20.914;2022-09-20T07:45:32;100498.21;;;10.42;87.79
59417;BME280;45222;52.458;20.914;2022-09-20T07:48:38;100497.04;;;10.44;87.81
59417;BME280;45222;52.458;20.914;2022-09-20T07:51:45;100499.14;;;10.50;87.90
59417;BME280;45222;52.458;20.914;2022-09-20T07:54:50;100501.28;;;10.53;87.71
59417;BME280;45222;52.458;20.914;2022-09-20T07:57:56;100506.52;;;10.56;87.70
59417;BME280;45222;52.458;20.914;2022-09-20T08:01:03;100506.59;;;10.57;87.75
59417;BME280;45222;52.458;20.914;2022-09-20T08:04:09;100506.85;;;10.59;87.48
59417;BME280;45222;52.458;20.914;2022-09-20T08:07:15;100512.06;;;10.62;87.40
59417;BME280;45222;52.458;20.914;2022-09-20T08:10:21;100504.63;;;10.65;87.29
59417;BME280;45222;52.458;20.914;2022-09-20T08:13:28;100508.96;;;10.68;87.34
59417;BME280;45222;52.458;20.914;2022-09-20T08:16:38;100508.48;;;10.70;87.21
59417;BME280;45222;52.458;20.914;2022-09-20T08:19:44;100510.39;;;10.68;87.15
59417;BME280;45222;52.458;20.914;2022-09-20T08:22:49;100510.03;;;10.68;87.43
59417;BME280;45222;52.458;20.914;2022-09-20T08:25:58;100514.75;;;10.70;86.86
59417;BME280;45222;52.458;20.914;2022-09-20T08:29:03;100516.34;;;10.70;87.22
59417;BME280;45222;52.458;20.914;2022-09-20T08:32:10;100519.21;;;10.77;87.24
59417;BME280;45222;52.458;20.914;2022-09-20T08:35:16;100518.58;;;10.87;87.52
59417;BME280;45222;52.458;20.914;2022-09-20T08:38:21;100516.91;;;10.95;87.04
59417;BME280;45222;52.458;20.914;2022-09-20T08:41:32;100522.63;;;11.02;86.86
59417;BME280;45222;52.458;20.914;2022-09-20T08:44:45;100524.48;;;11.12;86.79
59417;BME280;45222;52.458;20.914;2022-09-20T08:47:55;100528.55;;;11.20;86.60
59417;BME280;45222;52.458;20.914;2022-09-20T08:51:04;100531.70;;;11.25;86.19
59417;BME280;45222;52.458;20.914;2022-09-20T08:54:12;100528.27;;;11.26;86.12
59417;BME280;45222;52.458;20.914;2022-09-20T08:57:20;100535.34;;;11.27;86.40
59417;BME280;45222;52.458;20.914;2022-09-20T09:00:29;100535.84;;;11.31;86.71
59417;BME280;45222;52.458;20.914;2022-09-20T09:03:36;100538.39;;;11.38;86.39
59417;BME280;45222;52.458;20.914;2022-09-20T09:06:42;100536.94;;;11.42;86.12
59417;BME280;45222;52.458;20.914;2022-09-20T09:09:50;100536.59;;;11.45;85.76
59417;BME280;45222;52.458;20.914;2022-09-20T09:12:57;100536.45;;;11.51;85.69
59417;BME280;45222;52.458;20.914;2022-09-20T09:16:09;100537.81;;;11.64;85.75
59417;BME280;45222;52.458;20.914;2022-09-20T09:19:32;100540.34;;;11.81;85.57
59417;BME280;45222;52.458;20.914;2022-09-20T09:22:47;100540.65;;;11.95;85.13
59417;BME280;45222;52.458;20.914;2022-09-20T09:26:03;100544.30;;;12.05;84.72
59417;BME280;45222;52.458;20.914;2022-09-20T09:29:16;100546.44;;;12.12;84.17
59417;BME280;45222;52.458;20.914;2022-09-20T09:32:24;100542.59;;;12.21;84.13
59417;BME280;45222;52.458;20.914;2022-09-20T09:35:34;100545.13;;;12.37;84.21
59417;BME280;45222;52.458;20.914;2022-09-20T09:38:41;100548.15;;;12.50;84.19
59417;BME280;45222;52.458;20.914;2022-09-20T09:41:48;100538.80;;;12.62;83.20
59417;BME280;45222;52.458;20.914;2022-09-20T09:45:10;100539.51;;;12.72;82.71
59417;BME280;45222;52.458;20.914;2022-09-20T09:48:21;100540.92;;;12.79;82.07
59417;BME280;45222;52.458;20.914;2022-09-20T09:51:27;100545.70;;;12.86;81.70
59417;BME280;45222;52.458;20.914;2022-09-20T09:54:36;100540.90;;;12.99;81.50
59417;BME280;45222;52.458;20.914;2022-09-20T09:57:47;100539.46;;;13.18;80.84
59417;BME280;45222;52.458;20.914;2022-09-20T10:01:00;100538.89;;;13.34;79.38
59417;BME280;45222;52.458;20.914;2022-09-20T10:04:14;100535.73;;;13.46;79.12
59417;BME280;45222;52.458;20.914;2022-09-20T10:07:26;100534.31;;;13.55;78.93
59417;BME280;45222;52.458;20.914;2022-09-20T10:10:40;100539.52;;;13.64;78.78
59417;BME280;45222;52.458;20.914;2022-09-20T10:14:00;100542.04;;;13.70;78.13
59417;BME280;45222;52.458;20.914;2022-09-20T10:17:20;100541.25;;;13.81;77.75
59417;BME280;45222;52.458;20.914;2022-09-20T10:20:35;100542.09;;;13.94;77.40
59417;BME280;45222;52.458;20.914;2022-09-20T10:23:53;100541.73;;;14.21;77.33
59417;BME280;45222;52.458;20.914;2022-09-20T10:27:12;100544.48;;;14.49;77.07
59417;BME280;45222;52.458;20.914;2022-09-20T10:30:21;100543.98;;;14.74;75.45
59417;BME280;45222;52.458;20.914;2022-09-20T10:33:33;100545.70;;;14.84;75.33
59417;BME280;45222;52.458;20.914;2022-09-20T10:36:45;100548.60;;;14.84;74.06
59417;BME280;45222;52.458;20.914;2022-09-20T10:39:58;100546.39;;;14.79;74.08
59417;BME280;45222;52.458;20.914;2022-09-20T10:43:18;100552.64;;;14.67;73.19
59417;BME280;45222;52.458;20.914;2022-09-20T10:46:33;100550.27;;;14.48;72.47
59417;BME280;45222;52.458;20.914;2022-09-20T10:49:51;100545.96;;;14.36;73.23
59417;BME280;45222;52.458;20.914;2022-09-20T10:53:09;100542.84;;;14.43;73.56
59417;BME280;45222;52.458;20.914;2022-09-20T10:56:26;100542.70;;;14.60;74.05
59417;BME280;45222;52.458;20.914;2022-09-20T10:59:43;100540.99;;;14.70;73.94
59417;BME280;45222;52.458;20.914;2022-09-20T11:03:03;100535.77;;;14.80;73.62
59417;BME280;45222;52.458;20.914;2022-09-20T11:06:21;100537.73;;;14.85;73.25
59417;BME280;45222;52.458;20.914;2022-09-20T11:09:32;100534.55;;;14.93;72.95
59417;BME280;45222;52.458;20.914;2022-09-20T11:12:39;100538.45;;;14.94;72.40
59417;BME280;45222;52.458;20.914;2022-09-20T11:15:50;100538.89;;;14.84;71.35
59417;BME280;45222;52.458;20.914;2022-09-20T11:19:02;100539.49;;;14.75;70.78
59417;BME280;45222;52.458;20.914;2022-09-20T11:22:12;100538.63;;;14.74;70.54
59417;BME280;45222;52.458;20.914;2022-09-20T11:25:22;100537.17;;;14.95;71.46
59417;BME280;45222;52.458;20.914;2022-09-20T11:28:35;100534.08;;;15.31;71.01
59417;BME280;45222;52.458;20.914;2022-09-20T11:31:46;100529.35;;;15.57;70.23
59417;BME280;45222;52.458;20.914;2022-09-20T11:34:58;100529.65;;;15.63;69.18
59417;BME280;45222;52.458;20.914;2022-09-20T11:38:11;100526.14;;;15.56;69.07
59417;BME280;45222;52.458;20.914;2022-09-20T11:41:23;100531.27;;;15.36;69.16
59417;BME280;45222;52.458;20.914;2022-09-20T11:44:29;100537.07;;;15.10;69.08
59417;BME280;45222;52.458;20.914;2022-09-20T11:47:39;100538.81;;;15.02;69.06
59417;BME280;45222;52.458;20.914;2022-09-20T11:51:08;100543.05;;;15.01;68.71
59417;BME280;45222;52.458;20.914;2022-09-20T11:54:28;100544.81;;;14.84;69.79
59417;BME280;45222;52.458;20.914;2022-09-20T11:57:36;100543.77;;;14.75;70.72
59417;BME280;45222;52.458;20.914;2022-09-20T12:00:45;100552.63;;;14.70;70.74
59417;BME280;45222;52.458;20.914;2022-09-20T12:03:53;100556.98;;;14.61;71.01
59417;BME280;45222;52.458;20.914;2022-09-20T12:07:03;100553.73;;;14.49;71.69
59417;BME280;45222;52.458;20.914;2022-09-20T12:10:25;100554.95;;;14.39;71.96
59417;BME280;45222;52.458;20.914;2022-09-20T12:13:33;100552.80;;;14.29;72.58
59417;BME280;45222;52.458;20.914;2022-09-20T12:16:42;100553.36;;;14.26;72.86
59417;BME280;45222;52.458;20.914;2022-09-20T12:19:49;100552.62;;;14.27;73.21
59417;BME280;45222;52.458;20.914;2022-09-20T12:26:45;100550.33;;;14.47;74.18
59417;BME280;45222;52.458;20.914;2022-09-20T12:30:04;100549.20;;;14.59;73.45
59417;BME280;45222;52.458;20.914;2022-09-20T12:33:19;100546.96;;;14.69;72.18
59417;BME280;45222;52.458;20.914;2022-09-20T12:36:26;100545.55;;;14.78;71.51
59417;BME280;45222;52.458;20.914;2022-09-20T12:39:34;100543.33;;;14.79;70.88
59417;BME280;45222;52.458;20.914;2022-09-20T12:42:41;100547.27;;;14.76;70.20
59417;BME280;45222;52.458;20.914;2022-09-20T12:45:54;100549.95;;;14.79;70.27
59417;BME280;45222;52.458;20.914;2022-09-20T12:49:30;100550.76;;;14.81;70.32
59417;BME280;45222;52.458;20.914;2022-09-20T12:52:55;100548.83;;;14.74;70.76
59417;BME280;45222;52.458;20.914;2022-09-20T12:56:06;100550.95;;;14.66;71.18
59417;BME280;45222;52.458;20.914;2022-09-20T12:59:22;100551.95;;;14.55;71.34
59417;BME280;45222;52.458;20.914;2022-09-20T13:02:56;100549.38;;;14.39;71.49
59417;BME280;45222;52.458;20.914;2022-09-20T13:06:23;100550.90;;;14.23;71.99
59417;BME280;45222;52.458;20.914;2022-09-20T13:09:28;100552.11;;;14.11;72.33
59417;BME280;45222;52.458;20.914;2022-09-20T13:12:39;100554.05;;;13.97;72.70
59417;BME280;45222;52.458;20.914;2022-09-20T13:15:51;100559.67;;;13.83;72.79
59417;BME280;45222;52.458;20.914;2022-09-20T13:19:00;100565.45;;;13.70;73.35
59417;BME280;45222;52.458;20.914;2022-09-20T13:22:11;100569.24;;;13.54;73.26
59417;BME280;45222;52.458;20.914;2022-09-20T13:25:21;100572.83;;;13.35;73.21
59417;BME280;45222;52.458;20.914;2022-09-20T13:28:33;100567.54;;;13.20;73.75
59417;BME280;45222;52.458;20.914;2022-09-20T13:31:39;100569.20;;;13.13;74.00
59417;BME280;45222;52.458;20.914;2022-09-20T13:34:44;100567.26;;;13.13;74.48
59417;BME280;45222;52.458;20.914;2022-09-20T13:37:55;100565.41;;;13.17;74.69
59417;BME280;45222;52.458;20.914;2022-09-20T13:41:04;100559.77;;;13.25;75.08
59417;BME280;45222;52.458;20.914;2022-09-20T13:44:16;100565.67;;;13.44;75.42
59417;BME280;45222;52.458;20.914;2022-09-20T13:47:24;100561.34;;;13.67;74.63
59417;BME280;45222;52.458;20.914;2022-09-20T13:50:33;100560.30;;;14.00;73.99
59417;BME280;45222;52.458;20.914;2022-09-20T13:53:39;100560.88;;;14.38;73.75
59417;BME280;45222;52.458;20.914;2022-09-20T13:56:44;100557.19;;;14.75;72.48
59417;BME280;45222;52.458;20.914;2022-09-20T13:59:50;100562.02;;;15.09;71.58
59417;BME280;45222;52.458;20.914;2022-09-20T14:02:57;100564.46;;;15.30;70.75
59417;BME280;45222;52.458;20.914;2022-09-20T14:06:06;100568.33;;;15.45;70.54
59417;BME280;45222;52.458;20.914;2022-09-20T14:09:22;100578.98;;;15.32;69.73
59417;BME280;45222;52.458;20.914;2022-09-20T14:12:29;100592.63;;;15.09;70.46
59417;BME280;45222;52.458;20.914;2022-09-20T14:15:37;100594.12;;;14.80;70.72
59417;BME280;45222;52.458;20.914;2022-09-20T14:18:44;100595.30;;;14.34;69.20
59417;BME280;45222;52.458;20.914;2022-09-20T14:21:51;100588.20;;;13.63;70.19
59417;BME280;45222;52.458;20.914;2022-09-20T14:25:02;100588.17;;;13.12;70.98
59417;BME280;45222;52.458;20.914;2022-09-20T14:28:17;100588.48;;;12.74;71.75
59417;BME280;45222;52.458;20.914;2022-09-20T14:31:25;100590.04;;;12.45;73.20
59417;BME280;45222;52.458;20.914;2022-09-20T14:34:35;100592.05;;;12.30;74.34
59417;BME280;45222;52.458;20.914;2022-09-20T14:37:44;100589.08;;;12.22;74.62
59417;BME280;45222;52.458;20.914;2022-09-20T14:40:49;100592.56;;;12.20;75.20
59417;BME280;45222;52.458;20.914;2022-09-20T14:43:57;100599.50;;;12.20;76.15
59417;BME280;45222;52.458;20.914;2022-09-20T14:47:15;100597.46;;;12.25;76.73
59417;BME280;45222;52.458;20.914;2022-09-20T14:50:25;100590.88;;;12.32;77.49
59417;BME280;45222;52.458;20.914;2022-09-20T14:53:32;100587.52;;;12.38;78.00
59417;BME280;45222;52.458;20.914;2022-09-20T14:56:44;100593.27;;;12.41;78.20
59417;BME280;45222;52.458;20.914;2022-09-20T14:59:54;100593.80;;;12.41;79.10
59417;BME280;45222;52.458;20.914;2022-09-20T15:03:05;100601.52;;;12.40;79.01
59417;BME280;45222;52.458;20.914;2022-09-20T15:06:13;100617.09;;;12.35;78.64
59417;BME280;45222;52.458;20.914;2022-09-20T15:09:20;100630.84;;;12.07;78.93
59417;BME280;45222;52.458;20.914;2022-09-20T15:12:26;100638.19;;;11.84;79.28
59417;BME280;45222;52.458;20.914;2022-09-20T15:15:32;100638.27;;;11.67;79.46
59417;BME280;45222;52.458;20.914;2022-09-20T15:18:41;100638.66;;;11.60;79.60
59417;BME280;45222;52.458;20.914;2022-09-20T15:21:47;100633.89;;;11.55;80.14
59417;BME280;45222;52.458;20.914;2022-09-20T15:24:52;100635.27;;;11.52;80.32
59417;BME280;45222;52.458;20.914;2022-09-20T15:27:58;100633.95;;;11.50;80.21
59417;BME280;45222;52.458;20.914;2022-09-20T15:31:04;100635.77;;;11.49;80.55
59417;BME280;45222;52.458;20.914;2022-09-20T15:34:09;100633.30;;;11.48;80.28
59417;BME280;45222;52.458;20.914;2022-09-20T15:37:16;100635.30;;;11.51;80.85
59417;BME280;45222;52.458;20.914;2022-09-20T15:40:21;100635.31;;;11.63;81.45
59417;BME280;45222;52.458;20.914;2022-09-20T15:43:31;100632.89;;;11.75;81.47
59417;BME280;45222;52.458;20.914;2022-09-20T15:46:45;100634.41;;;11.85;81.07
59417;BME280;45222;52.458;20.914;2022-09-20T15:49:55;100640.85;;;11.88;80.70
59417;BME280;45222;52.458;20.914;2022-09-20T15:53:02;100638.67;;;11.88;80.55
59417;BME280;45222;52.458;20.914;2022-09-20T15:56:16;100640.61;;;11.89;80.54
59417;BME280;45222;52.458;20.914;2022-09-20T15:59:22;100643.05;;;11.90;80.60
59417;BME280;45222;52.458;20.914;2022-09-20T16:02:28;100645.30;;;11.91;80.61
59417;BME280;45222;52.458;20.914;2022-09-20T16:05:34;100644.19;;;11.92;80.97
59417;BME280;45222;52.458;20.914;2022-09-20T16:08:41;100644.84;;;11.90;80.84
59417;BME280;45222;52.458;20.914;2022-09-20T16:11:47;100651.35;;;11.84;80.85
59417;BME280;45222;52.458;20.914;2022-09-20T16:14:52;100652.78;;;11.77;81.02
59417;BME280;45222;52.458;20.914;2022-09-20T16:17:58;100653.83;;;11.74;80.99
59417;BME280;45222;52.458;20.914;2022-09-20T16:21:21;100660.10;;;11.73;81.33
59417;BME280;45222;52.458;20.914;2022-09-20T16:24:29;100656.36;;;11.73;81.57
59417;BME280;45222;52.458;20.914;2022-09-20T16:27:34;100651.26;;;11.75;81.66
59417;BME280;45222;52.458;20.914;2022-09-20T16:30:40;100654.51;;;11.78;81.54
59417;BME280;45222;52.458;20.914;2022-09-20T16:33:45;100653.86;;;11.80;81.67
59417;BME280;45222;52.458;20.914;2022-09-20T16:36:52;100655.12;;;11.80;81.78
59417;BME280;45222;52.458;20.914;2022-09-20T16:39:59;100654.17;;;11.81;82.27
59417;BME280;45222;52.458;20.914;2022-09-20T16:43:04;100655.42;;;11.81;82.29
59417;BME280;45222;52.458;20.914;2022-09-20T16:46:12;100657.80;;;11.79;82.41
59417;BME280;45222;52.458;20.914;2022-09-20T16:49:17;100659.59;;;11.80;82.45